Time;durP1;ratioP1;P1;durP2;ratioP2;P2;SDS_P1;SDS_P2;PMS_P1;PMS_P2;Temp;Humidity;BMP_temperature;BMP_pressure;BME280_temperature;BME280_humidity;BME280_pressure;Samples;Min_cycle;Max_cycle;Signal;HPM_P1;HPM_P2
2021/08/29 00:01:09;;;;;;;6.23;5.60;;;17.00;99.90;;;;;;5091333;28;20211;-72
2021/08/29 00:03:36;;;;;;;6.37;5.77;;;16.90;99.90;;;;;;5091168;28;20987;-72
2021/08/29 00:06:04;;;;;;;5.60;5.20;;;16.90;99.90;;;;;;5091472;28;20231;-73
2021/08/29 00:08:30;;;;;;;5.90;5.47;;;17.00;99.90;;;;;;5091201;28;20611;-72
2021/08/29 00:10:57;;;;;;;6.00;5.47;;;17.00;99.90;;;;;;5090860;28;20813;-72
2021/08/29 00:13:24;;;;;;;5.40;4.90;;;17.00;99.90;;;;;;5091535;28;20273;-72
2021/08/29 00:15:50;;;;;;;5.60;5.10;;;16.90;99.90;;;;;;5091051;28;20676;-73
2021/08/29 00:18:17;;;;;;;5.13;4.77;;;16.90;99.90;;;;;;5091263;28;20207;-72
2021/08/29 00:20:44;;;;;;;5.03;4.73;;;16.90;99.90;;;;;;5091133;28;20210;-72
2021/08/29 00:23:12;;;;;;;5.60;5.20;;;16.90;99.90;;;;;;5091319;28;20572;-72
2021/08/29 00:25:39;;;;;;;5.03;4.63;;;17.00;99.90;;;;;;5090943;28;20227;-72
2021/08/29 00:28:06;;;;;;;5.20;4.80;;;17.00;99.90;;;;;;5091206;28;20256;-72
2021/08/29 00:30:32;;;;;;;4.87;4.57;;;16.90;99.90;;;;;;5091010;28;20252;-72
2021/08/29 00:32:59;;;;;;;4.90;4.60;;;16.90;99.90;;;;;;5091139;28;20621;-72
2021/08/29 00:35:25;;;;;;;4.87;4.57;;;16.90;99.90;;;;;;5090208;28;20234;-72
2021/08/29 00:37:52;;;;;;;4.40;4.10;;;16.90;99.90;;;;;;5090809;28;20291;-72
2021/08/29 00:40:20;;;;;;;4.30;4.00;;;16.90;99.90;;;;;;5090750;28;20665;-72
2021/08/29 00:42:48;;;;;;;4.70;4.30;;;16.90;99.90;;;;;;5090550;28;20203;-72
2021/08/29 00:45:15;;;;;;;4.83;4.43;;;16.90;99.90;;;;;;5090696;28;20230;-72
2021/08/29 00:47:42;;;;;;;4.83;4.40;;;16.90;99.90;;;;;;5090634;28;20230;-72
2021/08/29 00:50:09;;;;;;;4.57;4.27;;;16.90;99.90;;;;;;5090795;28;20207;-73
2021/08/29 00:52:38;;;;;;;4.20;3.93;;;16.90;99.90;;;;;;5090369;28;20281;-72
2021/08/29 00:55:06;;;;;;;4.20;4.00;;;16.90;99.90;;;;;;5090144;28;20266;-72
2021/08/29 00:57:34;;;;;;;4.20;3.87;;;16.90;99.90;;;;;;5090699;28;20214;-72
2021/08/29 01:00:00;;;;;;;5.30;4.80;;;17.00;99.90;;;;;;5090160;28;20260;-73
2021/08/29 01:02:28;;;;;;;4.80;4.40;;;16.90;99.90;;;;;;5101202;27;20202;-73
2021/08/29 01:05:00;;;;;;;4.90;4.60;;;16.90;99.90;;;;;;5110260;27;20218;-73
2021/08/29 01:07:33;;;;;;;4.87;4.57;;;16.90;99.90;;;;;;5110105;28;20245;-72
2021/08/29 01:10:04;;;;;;;4.70;4.30;;;16.90;99.90;;;;;;5110464;28;20222;-73
2021/08/29 01:12:31;;;;;;;4.77;4.33;;;16.90;99.90;;;;;;5110309;28;20294;-71
2021/08/29 01:15:03;;;;;;;4.57;4.27;;;16.90;99.90;;;;;;5109381;28;20241;-72
2021/08/29 01:17:32;;;;;;;4.27;3.97;;;16.90;99.90;;;;;;5107114;28;20194;-72
2021/08/29 01:20:07;;;;;;;5.17;4.50;;;16.90;99.90;;;;;;5108639;28;20210;-72
2021/08/29 01:22:35;;;;;;;4.27;3.97;;;16.90;99.90;;;;;;5109841;28;20190;-72
2021/08/29 01:25:02;;;;;;;7.00;4.70;;;16.80;99.90;;;;;;5110414;28;20627;-73
2021/08/29 01:27:35;;;;;;;4.67;4.17;;;16.80;99.90;;;;;;5109656;28;20206;-73
2021/08/29 01:30:04;;;;;;;4.30;4.00;;;16.80;99.90;;;;;;5110008;28;20272;-73
2021/08/29 01:32:32;;;;;;;4.70;4.40;;;16.80;99.90;;;;;;5109806;28;20206;-73
2021/08/29 01:35:00;;;;;;;4.70;4.03;;;16.90;99.90;;;;;;5109950;28;20251;-72
2021/08/29 01:37:27;;;;;;;6.40;4.40;;;16.80;99.90;;;;;;5109768;28;20210;-72
2021/08/29 01:39:55;;;;;;;5.50;4.43;;;16.80;99.90;;;;;;5090937;28;20207;-71
2021/08/29 01:42:22;;;;;;;4.67;4.37;;;16.80;99.90;;;;;;5089593;28;20207;-71
2021/08/29 01:44:48;;;;;;;4.50;4.20;;;16.80;99.90;;;;;;5088776;28;20226;-72
2021/08/29 01:47:17;;;;;;;4.67;4.30;;;16.80;99.90;;;;;;5088287;28;20258;-71
2021/08/29 01:49:45;;;;;;;4.57;4.20;;;16.80;99.90;;;;;;5088622;28;20198;-71
2021/08/29 01:52:13;;;;;;;4.50;4.20;;;16.80;99.90;;;;;;5089311;28;20247;-71
2021/08/29 01:54:40;;;;;;;4.13;3.77;;;16.80;99.90;;;;;;5088487;28;20242;-71
2021/08/29 01:57:11;;;;;;;4.47;4.17;;;16.80;99.90;;;;;;5089118;28;20202;-72
2021/08/29 01:59:38;;;;;;;4.57;4.27;;;16.80;99.90;;;;;;5088074;28;20217;-72
2021/08/29 02:02:05;;;;;;;4.37;4.07;;;16.90;99.90;;;;;;5089377;28;20234;-71
2021/08/29 02:04:34;;;;;;;4.90;4.43;;;16.90;99.90;;;;;;5088746;28;20617;-71
2021/08/29 02:07:10;;;;;;;5.23;4.17;;;16.90;99.90;;;;;;5089183;28;20264;-71
2021/08/29 02:09:40;;;;;;;4.03;3.80;;;16.80;99.90;;;;;;5089169;28;20226;-71
2021/08/29 02:12:09;;;;;;;4.37;4.07;;;16.80;99.90;;;;;;5088930;28;20230;-73
2021/08/29 02:14:41;;;;;;;4.13;3.43;;;16.80;99.90;;;;;;5088916;28;20567;-73
2021/08/29 02:17:11;;;;;;;3.93;3.73;;;16.80;99.90;;;;;;5089063;28;20222;-73
2021/08/29 02:19:40;;;;;;;4.47;4.17;;;16.80;99.90;;;;;;5088885;28;20238;-73
2021/08/29 02:22:07;;;;;;;4.80;3.83;;;16.80;99.90;;;;;;5088852;28;20210;-73
2021/08/29 02:24:34;;;;;;;4.20;3.90;;;16.70;99.90;;;;;;5088480;28;20210;-72
2021/08/29 02:27:01;;;;;;;4.40;4.10;;;16.80;99.90;;;;;;5088857;28;20259;-71
2021/08/29 02:29:29;;;;;;;4.53;4.17;;;16.70;99.90;;;;;;5088764;28;20210;-72
2021/08/29 02:31:56;;;;;;;4.43;4.13;;;16.60;99.90;;;;;;5088791;28;20275;-72
2021/08/29 02:34:23;;;;;;;4.77;4.40;;;16.70;99.90;;;;;;5088458;28;20661;-72
2021/08/29 02:36:53;;;;;;;4.30;3.90;;;16.70;99.90;;;;;;5088737;28;20260;-72
2021/08/29 02:39:21;;;;;;;5.07;4.57;;;16.70;99.90;;;;;;5088632;28;20264;-72
2021/08/29 02:41:51;;;;;;;4.60;4.20;;;16.70;99.90;;;;;;5088453;28;20251;-72
2021/08/29 02:44:19;;;;;;;5.07;4.70;;;16.70;99.90;;;;;;5088720;28;20210;-72
2021/08/29 02:46:45;;;;;;;4.83;4.40;;;16.70;99.90;;;;;;5088286;28;20769;-72
2021/08/29 02:49:13;;;;;;;4.37;4.17;;;16.70;99.90;;;;;;5088610;28;20206;-72
2021/08/29 02:51:40;;;;;;;4.90;4.50;;;16.70;99.90;;;;;;5088615;28;20620;-71
2021/08/29 02:54:08;;;;;;;4.93;4.47;;;16.70;99.90;;;;;;5088042;28;20723;-72
2021/08/29 02:56:35;;;;;;;4.93;4.47;;;16.60;99.90;;;;;;5088229;28;20207;-72
2021/08/29 02:59:02;;;;;;;4.93;4.60;;;16.50;99.90;;;;;;5088139;28;20642;-72
2021/08/29 03:01:30;;;;;;;5.17;4.77;;;16.40;99.90;;;;;;5088564;28;20238;-72
2021/08/29 03:03:57;;;;;;;4.77;4.47;;;16.30;99.90;;;;;;5087875;28;20730;-72
2021/08/29 03:06:24;;;;;;;4.83;4.47;;;16.30;99.90;;;;;;5088423;28;20287;-72
2021/08/29 03:08:51;;;;;;;4.57;4.27;;;16.40;99.90;;;;;;5088231;28;20272;-72
2021/08/29 03:11:20;;;;;;;5.00;4.60;;;16.40;99.90;;;;;;5087897;28;20774;-73
2021/08/29 03:13:48;;;;;;;9.63;4.80;;;16.40;99.90;;;;;;5088324;28;20203;-72
2021/08/29 03:16:16;;;;;;;4.83;4.43;;;16.40;99.90;;;;;;5088242;28;20264;-72
2021/08/29 03:18:44;;;;;;;4.17;3.97;;;16.40;99.90;;;;;;5088191;28;20248;-74
2021/08/29 03:21:11;;;;;;;4.70;4.40;;;16.40;99.90;;;;;;5088418;28;20256;-75
2021/08/29 03:23:39;;;;;;;4.60;4.30;;;16.40;99.90;;;;;;5087850;28;20207;-72
2021/08/29 03:26:05;;;;;;;4.47;4.07;;;16.40;99.90;;;;;;5088167;28;20268;-72
2021/08/29 03:28:34;;;;;;;3.93;3.53;;;16.50;99.90;;;;;;5088316;28;20422;-72
2021/08/29 03:31:01;;;;;;;3.93;3.73;;;16.50;99.90;;;;;;5088096;28;20206;-72
2021/08/29 03:33:29;;;;;;;4.53;3.60;;;16.60;99.90;;;;;;5087944;28;20206;-72
2021/08/29 03:35:58;;;;;;;3.17;3.00;;;16.60;99.90;;;;;;5088346;28;20202;-72
2021/08/29 03:38:26;;;;;;;2.77;2.67;;;16.60;99.90;;;;;;5088091;28;20260;-72
2021/08/29 03:40:55;;;;;;;2.93;2.67;;;16.50;99.90;;;;;;5088044;28;20237;-73
2021/08/29 03:43:22;;;;;;;2.73;2.63;;;16.50;99.90;;;;;;5088004;28;20234;-73
2021/08/29 03:45:51;;;;;;;3.00;2.80;;;16.50;99.90;;;;;;5087809;28;20231;-73
2021/08/29 03:48:18;;;;;;;3.83;3.63;;;16.60;99.90;;;;;;5087855;28;20222;-71
2021/08/29 03:50:45;;;;;;;3.47;3.27;;;16.50;99.90;;;;;;5087995;28;20234;-71
2021/08/29 03:53:13;;;;;;;3.63;3.43;;;16.60;99.90;;;;;;5087866;28;20238;-71
2021/08/29 03:55:40;;;;;;;3.70;3.50;;;16.50;99.90;;;;;;5088171;28;20195;-71
2021/08/29 03:58:08;;;;;;;3.87;3.53;;;16.50;99.90;;;;;;5088059;28;20203;-71
2021/08/29 04:00:35;;;;;;;3.50;3.20;;;16.40;99.90;;;;;;5087675;28;20215;-71
2021/08/29 04:03:03;;;;;;;5.20;3.37;;;16.40;99.90;;;;;;5087983;28;20198;-71
2021/08/29 04:05:31;;;;;;;3.27;3.03;;;16.40;99.90;;;;;;5087866;28;20316;-72
2021/08/29 04:07:59;;;;;;;3.53;3.33;;;16.40;99.90;;;;;;5087390;28;20210;-73
2021/08/29 04:10:27;;;;;;;3.90;3.50;;;16.50;99.90;;;;;;5090185;28;20207;-72
2021/08/29 04:12:54;;;;;;;3.70;3.50;;;16.30;99.90;;;;;;5091261;28;20223;-73
2021/08/29 04:15:21;;;;;;;3.80;3.50;;;16.40;99.90;;;;;;5090831;28;20615;-71
2021/08/29 04:17:49;;;;;;;3.53;3.33;;;16.30;99.90;;;;;;5090929;28;20199;-71
2021/08/29 04:20:18;;;;;;;3.47;3.23;;;16.30;99.90;;;;;;5091537;28;20203;-72
2021/08/29 04:22:45;;;;;;;3.40;3.20;;;16.30;99.90;;;;;;5091395;28;20235;-72
2021/08/29 04:25:14;;;;;;;3.27;3.07;;;16.30;99.90;;;;;;5091213;28;20449;-72
2021/08/29 04:27:41;;;;;;;3.80;3.50;;;16.20;99.90;;;;;;5090842;28;20600;-72
2021/08/29 04:30:08;;;;;;;4.07;3.77;;;16.20;99.90;;;;;;5091428;28;20291;-72
2021/08/29 04:32:36;;;;;;;3.73;3.43;;;16.20;99.90;;;;;;5090935;28;20575;-72
2021/08/29 04:35:03;;;;;;;3.50;3.30;;;16.20;99.90;;;;;;5091181;28;20256;-72
2021/08/29 04:37:31;;;;;;;4.27;3.40;;;16.20;99.90;;;;;;5091043;28;20286;-72
2021/08/29 04:39:58;;;;;;;3.70;3.40;;;16.30;99.90;;;;;;5091109;28;20219;-72
2021/08/29 04:42:24;;;;;;;3.50;3.30;;;16.30;99.90;;;;;;5090623;28;20681;-72
2021/08/29 04:44:51;;;;;;;3.67;3.37;;;16.30;99.90;;;;;;5090597;28;20256;-72
2021/08/29 04:47:18;;;;;;;3.57;3.37;;;16.40;99.90;;;;;;5090605;28;20290;-72
2021/08/29 04:49:44;;;;;;;3.33;3.13;;;16.40;99.90;;;;;;5090640;28;20279;-71
2021/08/29 04:52:11;;;;;;;3.60;3.40;;;16.40;99.90;;;;;;5090705;28;20252;-72
2021/08/29 04:54:39;;;;;;;3.93;3.63;;;16.50;99.90;;;;;;5090168;28;20644;-73
2021/08/29 04:57:05;;;;;;;3.33;3.13;;;16.50;99.90;;;;;;5090555;28;20268;-72
2021/08/29 04:59:32;;;;;;;3.30;3.10;;;16.50;99.90;;;;;;5090473;28;20206;-71
2021/08/29 05:01:59;;;;;;;4.03;3.30;;;16.50;99.90;;;;;;5090209;28;20211;-71
2021/08/29 05:04:25;;;;;;;3.90;3.70;;;16.50;99.90;;;;;;5090474;28;20268;-72
2021/08/29 05:06:52;;;;;;;3.67;3.20;;;16.50;99.90;;;;;;5090091;28;20234;-72
2021/08/29 05:09:19;;;;;;;3.43;3.23;;;16.50;99.90;;;;;;5090305;28;20219;-72
2021/08/29 05:11:46;;;;;;;3.67;3.00;;;16.50;99.90;;;;;;5090064;28;20231;-71
2021/08/29 05:14:13;;;;;;;3.40;3.20;;;16.60;99.90;;;;;;5089684;28;20681;-71
2021/08/29 05:16:40;;;;;;;4.10;3.47;;;16.60;99.90;;;;;;5090085;28;20291;-71
2021/08/29 05:19:06;;;;;;;3.17;2.97;;;16.60;99.90;;;;;;5090197;28;20550;-71
2021/08/29 05:21:33;;;;;;;3.67;3.37;;;16.60;99.90;;;;;;5089835;28;20230;-70
2021/08/29 05:24:00;;;;;;;3.43;3.23;;;16.60;99.90;;;;;;5090065;28;20238;-71
2021/08/29 05:26:26;;;;;;;3.60;3.30;;;16.60;99.90;;;;;;5089922;28;20223;-71
2021/08/29 05:28:54;;;;;;;3.53;3.33;;;16.60;99.90;;;;;;5089476;28;20619;-71
2021/08/29 05:31:21;;;;;;;3.50;3.30;;;16.60;99.90;;;;;;5089925;28;20203;-71
2021/08/29 05:33:48;;;;;;;3.60;3.40;;;16.60;99.90;;;;;;5089881;28;20207;-71
2021/08/29 05:36:14;;;;;;;3.77;3.57;;;16.60;99.90;;;;;;5089628;28;20657;-71
2021/08/29 05:38:41;;;;;;;3.90;3.60;;;16.60;99.90;;;;;;5089718;28;20211;-71
2021/08/29 05:41:07;;;;;;;3.70;3.50;;;16.60;99.90;;;;;;5089701;28;20202;-71
2021/08/29 05:43:34;;;;;;;3.50;3.30;;;16.60;99.90;;;;;;5089783;28;20234;-71
2021/08/29 05:46:02;;;;;;;3.77;3.47;;;16.60;99.90;;;;;;5089524;28;20234;-71
2021/08/29 05:48:29;;;;;;;3.40;3.13;;;16.60;99.90;;;;;;5089761;28;20207;-71
2021/08/29 05:50:55;;;;;;;3.70;3.50;;;16.50;99.90;;;;;;5089551;28;20211;-71
2021/08/29 05:53:22;;;;;;;4.07;3.87;;;16.40;99.90;;;;;;5089395;28;20218;-71
2021/08/29 05:55:49;;;;;;;4.90;4.60;;;16.40;99.90;;;;;;5089091;28;20538;-71
2021/08/29 05:58:15;;;;;;;3.87;3.57;;;16.30;99.90;;;;;;5089218;28;20669;-73
2021/08/29 06:00:42;;;;;;;3.90;3.70;;;16.30;99.90;;;;;;5089340;28;20248;-74
2021/08/29 06:03:10;;;;;;;4.20;3.83;;;16.30;99.90;;;;;;5089234;28;20268;-74
2021/08/29 06:05:39;;;;;;;4.03;3.83;;;16.20;99.90;;;;;;5088974;28;20572;-74
2021/08/29 06:08:06;;;;;;;3.50;3.30;;;16.30;99.90;;;;;;5089364;28;20223;-74
2021/08/29 06:10:33;;;;;;;4.47;4.17;;;16.30;99.90;;;;;;5089335;28;20256;-74
2021/08/29 06:12:59;;;;;;;4.80;3.73;;;16.30;99.90;;;;;;5089399;28;20279;-74
2021/08/29 06:15:26;;;;;;;4.13;3.70;;;16.30;99.90;;;;;;5089205;28;20289;-74
2021/08/29 06:17:53;;;;;;;4.03;3.83;;;16.30;99.90;;;;;;5089041;28;20614;-74
2021/08/29 06:20:21;;;;;;;3.90;3.70;;;16.40;99.90;;;;;;5089138;28;20203;-74
2021/08/29 06:22:47;;;;;;;4.50;4.20;;;16.40;99.90;;;;;;5088954;28;20299;-73
2021/08/29 06:25:14;;;;;;;4.67;4.10;;;16.40;99.90;;;;;;5088963;28;20234;-73
2021/08/29 06:27:41;;;;;;;3.80;3.60;;;16.30;99.90;;;;;;5088867;28;20260;-73
2021/08/29 06:30:08;;;;;;;4.27;3.97;;;16.30;99.90;;;;;;5088643;28;20734;-73
2021/08/29 06:32:35;;;;;;;4.00;3.70;;;16.30;99.90;;;;;;5088238;28;20851;-73
2021/08/29 06:35:01;;;;;;;4.17;3.87;;;16.30;99.90;;;;;;5088929;28;20263;-73
2021/08/29 06:37:29;;;;;;;3.90;3.70;;;16.30;99.90;;;;;;5088781;28;20276;-73
2021/08/29 06:39:56;;;;;;;4.30;4.00;;;16.30;99.90;;;;;;5088806;28;20225;-73
2021/08/29 06:42:22;;;;;;;3.97;3.77;;;16.20;99.90;;;;;;5088427;28;20680;-73
2021/08/29 06:44:49;;;;;;;3.70;3.50;;;16.20;99.90;;;;;;5088456;28;20206;-73
2021/08/29 06:47:16;;;;;;;4.03;3.83;;;16.10;99.90;;;;;;5088162;28;20756;-73
2021/08/29 06:49:42;;;;;;;4.50;4.10;;;16.00;99.90;;;;;;5088468;28;20202;-73
2021/08/29 06:52:09;;;;;;;4.13;3.83;;;16.00;99.90;;;;;;5088577;28;20207;-73
2021/08/29 06:54:37;;;;;;;6.43;5.73;;;16.10;99.90;;;;;;5088325;28;20246;-73
2021/08/29 06:57:04;;;;;;;4.90;4.53;;;16.10;99.90;;;;;;5088392;28;20202;-73
2021/08/29 06:59:30;;;;;;;4.63;4.23;;;16.20;99.90;;;;;;5088717;28;20206;-73
2021/08/29 07:01:57;;;;;;;4.10;3.73;;;16.20;99.90;;;;;;5088470;28;20230;-72
2021/08/29 07:04:24;;;;;;;3.53;3.33;;;16.10;99.90;;;;;;5088260;28;20206;-72
2021/08/29 07:06:50;;;;;;;3.67;3.00;;;16.10;99.90;;;;;;5088083;28;20762;-72
2021/08/29 07:09:17;;;;;;;3.93;3.43;;;16.20;99.90;;;;;;5088640;28;20700;-72
2021/08/29 07:11:45;;;;;;;3.70;3.50;;;16.20;99.90;;;;;;5088424;28;20284;-73
2021/08/29 07:14:12;;;;;;;3.60;3.30;;;16.20;99.90;;;;;;5088819;28;20256;-74
2021/08/29 07:16:38;;;;;;;3.83;3.63;;;16.20;99.90;;;;;;5088797;28;20203;-74
2021/08/29 07:19:05;;;;;;;4.50;4.10;;;16.20;99.90;;;;;;5088165;28;20263;-74
2021/08/29 07:21:31;;;;;;;3.90;3.70;;;16.30;99.90;;;;;;5088425;28;20255;-73
2021/08/29 07:23:58;;;;;;;3.60;3.40;;;16.10;99.90;;;;;;5088219;28;20238;-73
2021/08/29 07:26:25;;;;;;;4.30;3.80;;;16.00;99.90;;;;;;5088255;28;20223;-71
2021/08/29 07:28:53;;;;;;;3.63;3.43;;;16.00;99.90;;;;;;5088114;28;20215;-71
2021/08/29 07:31:19;;;;;;;4.20;3.90;;;16.00;99.90;;;;;;5088347;28;20238;-72
2021/08/29 07:33:46;;;;;;;3.60;3.30;;;16.00;99.90;;;;;;5087705;28;20588;-71
2021/08/29 07:36:12;;;;;;;3.63;3.43;;;16.00;99.90;;;;;;5088273;28;20221;-72
2021/08/29 07:38:39;;;;;;;3.80;3.60;;;16.10;99.90;;;;;;5088076;28;20801;-71
2021/08/29 07:41:06;;;;;;;4.33;3.27;;;16.10;99.90;;;;;;5088111;28;20293;-71
2021/08/29 07:43:33;;;;;;;2.83;2.73;;;16.20;99.90;;;;;;5088363;28;20225;-71
2021/08/29 07:46:01;;;;;;;3.10;2.90;;;16.20;99.90;;;;;;5091444;28;20279;-71
2021/08/29 07:48:27;;;;;;;3.40;3.10;;;16.30;99.90;;;;;;5091821;28;20703;-72
2021/08/29 07:50:54;;;;;;;2.90;2.77;;;16.30;99.90;;;;;;5091852;28;20203;-72
2021/08/29 07:53:21;;;;;;;3.47;3.27;;;16.30;99.90;;;;;;5091526;28;20653;-73
2021/08/29 07:55:47;;;;;;;3.03;2.83;;;16.10;99.90;;;;;;5091635;28;20656;-72
2021/08/29 07:58:14;;;;;;;3.43;3.23;;;16.00;99.90;;;;;;5091731;28;20218;-73
2021/08/29 08:00:40;;;;;;;3.30;3.10;;;15.80;99.90;;;;;;5091769;28;20211;-72
2021/08/29 08:03:08;;;;;;;3.40;3.20;;;15.90;99.90;;;;;;5091450;28;20284;-72
2021/08/29 08:05:35;;;;;;;3.20;3.00;;;15.80;99.90;;;;;;5091868;28;20211;-72
2021/08/29 08:08:02;;;;;;;3.57;3.37;;;15.80;99.90;;;;;;5091167;28;20261;-72
2021/08/29 08:10:29;;;;;;;4.03;3.83;;;15.80;99.90;;;;;;5091545;28;20999;-72
2021/08/29 08:12:56;;;;;;;4.80;4.40;;;15.80;99.90;;;;;;5090982;28;20822;-72
2021/08/29 08:15:23;;;;;;;3.30;3.10;;;15.90;99.90;;;;;;5091534;28;20203;-72
2021/08/29 08:17:50;;;;;;;3.70;3.50;;;15.80;99.90;;;;;;5091388;28;20202;-72
2021/08/29 08:20:17;;;;;;;4.10;3.80;;;15.80;99.90;;;;;;5091615;28;20243;-71
2021/08/29 08:22:45;;;;;;;3.87;3.67;;;15.80;99.90;;;;;;5106588;28;20206;-71
2021/08/29 08:25:12;;;;;;;4.23;3.83;;;15.90;99.90;;;;;;5111427;28;20210;-72
2021/08/29 08:27:39;;;;;;;4.17;3.87;;;15.80;99.90;;;;;;5091279;28;20230;-71
2021/08/29 08:30:07;;;;;;;3.67;3.47;;;15.80;99.90;;;;;;5100873;28;20213;-72
2021/08/29 08:32:33;;;;;;;4.23;3.93;;;15.80;99.90;;;;;;5111331;28;20206;-73
2021/08/29 08:35:00;;;;;;;4.40;4.10;;;15.80;99.90;;;;;;5111201;28;20247;-72
2021/08/29 08:37:28;;;;;;;4.67;4.30;;;15.80;99.90;;;;;;5111312;27;20202;-72
2021/08/29 08:39:55;;;;;;;4.03;3.73;;;15.90;99.90;;;;;;5106225;27;20195;-72
2021/08/29 08:42:22;;;;;;;3.97;3.63;;;16.00;99.90;;;;;;5095988;28;20210;-72
2021/08/29 08:44:48;;;;;;;3.40;3.20;;;16.00;99.90;;;;;;5106632;28;20268;-72
2021/08/29 08:47:17;;;;;;;3.30;3.10;;;16.00;99.90;;;;;;5107633;28;20279;-73
2021/08/29 08:49:45;;;;;;;3.57;3.27;;;16.10;99.90;;;;;;5107378;28;20256;-72
2021/08/29 08:52:17;;;;;;;3.17;2.87;;;16.20;99.90;;;;;;5107543;28;20608;-72
2021/08/29 08:54:47;;;;;;;3.80;3.60;;;16.20;99.90;;;;;;5106824;28;20241;-71
2021/08/29 08:57:17;;;;;;;3.27;3.07;;;16.30;99.90;;;;;;5107349;28;20217;-73
2021/08/29 08:59:43;;;;;;;3.93;3.73;;;16.30;99.90;;;;;;5106971;28;20205;-73
2021/08/29 09:02:10;;;;;;;3.77;3.57;;;16.40;99.90;;;;;;5106771;28;20574;-73
2021/08/29 09:04:37;;;;;;;3.97;3.67;;;16.40;99.90;;;;;;5102271;28;20231;-74
2021/08/29 09:07:05;;;;;;;3.50;3.30;;;16.30;99.90;;;;;;5106473;28;20237;-74
2021/08/29 09:09:32;;;;;;;3.43;3.23;;;16.30;99.90;;;;;;5106881;28;20253;-74
2021/08/29 09:12:00;;;;;;;3.40;3.20;;;16.50;99.90;;;;;;5106571;27;20258;-73
2021/08/29 09:14:42;;;;;;;3.67;3.47;;;16.60;99.90;;;;;;5106983;28;20237;-73
2021/08/29 09:17:22;;;;;;;3.10;2.90;;;16.60;99.90;;;;;;5106372;28;20198;-73
2021/08/29 09:19:49;;;;;;;3.47;3.27;;;16.80;99.90;;;;;;5106422;28;20234;-73
2021/08/29 09:22:24;;;;;;;3.37;3.17;;;16.90;99.90;;;;;;5100222;28;20209;-73
2021/08/29 09:24:51;;;;;;;2.37;2.27;;;17.00;99.90;;;;;;5106375;28;20194;-73
2021/08/29 09:27:22;;;;;;;3.20;3.00;;;17.00;99.90;;;;;;5105858;28;20243;-73
2021/08/29 09:29:50;;;;;;;3.30;3.10;;;17.00;99.90;;;;;;5092548;28;20230;-74
2021/08/29 09:32:20;;;;;;;4.23;2.90;;;17.10;99.90;;;;;;5086334;28;20217;-73
2021/08/29 09:34:58;;;;;;;2.87;2.77;;;17.10;99.90;;;;;;5086252;28;20702;-73
2021/08/29 09:37:24;;;;;;;2.60;2.50;;;17.10;99.90;;;;;;5086095;28;20199;-73
2021/08/29 09:39:51;;;;;;;2.30;2.20;;;17.20;99.90;;;;;;5085934;28;20206;-73
2021/08/29 09:42:19;;;;;;;2.97;2.30;;;17.20;99.90;;;;;;5104368;27;20275;-71
2021/08/29 09:44:56;;;;;;;2.13;2.03;;;17.40;99.90;;;;;;5108803;28;20229;-71
2021/08/29 09:47:22;;;;;;;2.07;1.97;;;17.40;99.90;;;;;;5097225;28;20291;-77
2021/08/29 09:49:51;;;;;;;1.90;1.80;;;17.50;99.90;;;;;;5098881;28;20248;-70
2021/08/29 09:52:26;;;;;;;2.70;2.20;;;17.60;99.90;;;;;;5100038;28;20204;-70
2021/08/29 09:54:54;;;;;;;3.23;3.03;;;17.80;99.90;;;;;;5098969;28;20236;-70
2021/08/29 09:57:22;;;;;;;1.97;1.87;;;17.80;99.90;;;;;;5106450;28;20214;-75
2021/08/29 09:59:51;;;;;;;1.63;1.53;;;17.80;99.90;;;;;;5098466;28;20194;-83
2021/08/29 10:02:20;;;;;;;1.90;1.87;;;17.70;99.90;;;;;;5102913;28;20205;-80
2021/08/29 10:04:47;;;;;;;1.67;1.57;;;17.80;99.90;;;;;;5097105;28;20205;-72
2021/08/29 10:07:16;;;;;;;1.50;1.50;;;17.80;99.90;;;;;;5098460;28;20866;-72
2021/08/29 10:09:44;;;;;;;1.10;1.10;;;18.00;99.90;;;;;;5106039;28;20271;-72
2021/08/29 10:12:11;;;;;;;1.53;1.40;;;18.20;99.90;;;;;;5107457;28;20234;-72
2021/08/29 10:14:41;;;;;;;1.17;1.17;;;18.20;99.90;;;;;;5108743;28;20214;-72
2021/08/29 10:17:09;;;;;;;1.20;1.13;;;18.30;99.90;;;;;;5109392;28;20199;-72
2021/08/29 10:19:38;;;;;;;0.90;0.90;;;18.40;99.90;;;;;;5109479;28;20202;-72
2021/08/29 10:22:05;;;;;;;1.10;1.10;;;18.50;99.90;;;;;;5108855;28;20210;-72
2021/08/29 10:24:33;;;;;;;1.10;1.10;;;18.70;99.90;;;;;;5109127;28;20206;-72
2021/08/29 10:27:05;;;;;;;1.00;1.00;;;18.80;99.90;;;;;;5109125;28;20247;-72
2021/08/29 10:29:39;;;;;;;1.20;1.10;;;18.90;99.90;;;;;;5108064;28;20259;-72
2021/08/29 10:32:19;;;;;;;1.20;1.20;;;18.80;99.90;;;;;;5109153;28;20210;-72
2021/08/29 10:34:45;;;;;;;1.33;1.30;;;18.90;99.90;;;;;;5108815;28;20194;-72
2021/08/29 10:37:12;;;;;;;0.90;0.90;;;19.00;99.90;;;;;;5105648;28;20202;-71
2021/08/29 10:39:39;;;;;;;0.87;0.87;;;18.90;99.90;;;;;;5104101;28;20237;-72
2021/08/29 10:42:06;;;;;;;0.73;0.73;;;18.80;99.90;;;;;;5106201;28;20229;-72
2021/08/29 10:44:34;;;;;;;0.70;0.70;;;18.70;99.90;;;;;;5106382;28;20673;-72
2021/08/29 10:47:02;;;;;;;0.80;0.80;;;18.80;99.90;;;;;;5105565;28;20225;-72
2021/08/29 10:49:30;;;;;;;2.27;2.07;;;19.10;99.90;;;;;;5106158;28;20237;-72
2021/08/29 10:51:57;;;;;;;2.07;1.97;;;19.00;99.90;;;;;;5106025;28;20686;-72
2021/08/29 10:54:24;;;;;;;0.90;0.90;;;18.70;99.90;;;;;;5106125;28;20318;-72
2021/08/29 10:56:50;;;;;;;0.73;0.73;;;18.60;99.90;;;;;;5105652;28;20252;-72
2021/08/29 10:59:35;;;;;;;0.80;0.80;;;18.60;99.90;;;;;;5106365;28;21032;-72
2021/08/29 11:02:13;;;;;;;0.70;0.70;;;18.70;99.90;;;;;;5106382;28;20198;-72
2021/08/29 11:04:48;;;;;;;0.63;0.63;;;18.60;99.90;;;;;;5105802;28;20270;-72
2021/08/29 11:07:50;;;;;;;0.60;0.60;;;18.40;99.90;;;;;;5106920;28;20225;-72
2021/08/29 11:10:45;;;;;;;1.03;0.67;;;18.40;99.90;;;;;;5106811;28;20233;-72
2021/08/29 11:13:35;;;;;;;0.60;0.60;;;18.40;99.90;;;;;;5106109;28;20760;-72
2021/08/29 11:16:20;;;;;;;0.50;0.50;;;18.40;99.90;;;;;;5105814;28;20202;-72
2021/08/29 11:19:09;;;;;;;0.33;0.30;;;18.40;99.90;;;;;;5107593;28;20201;-72
2021/08/29 11:22:10;;;;;;;0.40;0.40;;;18.30;99.90;;;;;;5110399;28;20271;-72
2021/08/29 11:24:53;;;;;;;0.33;0.30;;;18.20;99.90;;;;;;5110121;28;20254;-72
2021/08/29 11:27:45;;;;;;;3.03;0.40;;;18.20;99.90;;;;;;5109800;28;20194;-72
2021/08/29 11:30:15;;;;;;;1.03;0.33;;;18.20;99.90;;;;;;5110037;28;20190;-73
2021/08/29 11:32:46;;;;;;;0.20;0.20;;;18.30;99.90;;;;;;5109950;28;20373;-72
2021/08/29 11:35:15;;;;;;;0.47;0.47;;;18.40;99.90;;;;;;5110153;28;20244;-72
2021/08/29 11:37:43;;;;;;;0.40;0.40;;;18.60;99.90;;;;;;5108655;28;20255;-72
2021/08/29 11:40:13;;;;;;;0.20;0.20;;;18.90;99.90;;;;;;5107610;28;20247;-72
2021/08/29 11:42:40;;;;;;;0.63;0.30;;;19.00;99.90;;;;;;5108205;28;20230;-71
2021/08/29 11:45:13;;;;;;;0.27;0.27;;;19.00;99.90;;;;;;5108731;28;20609;-72
2021/08/29 11:47:43;;;;;;;2.17;0.23;;;19.00;99.90;;;;;;5097315;28;20199;-72
2021/08/29 11:50:12;;;;;;;0.30;0.30;;;19.00;99.90;;;;;;5106357;28;20232;-72
2021/08/29 11:52:39;;;;;;;0.20;0.20;;;19.10;99.90;;;;;;5108770;28;20565;-72
2021/08/29 11:55:08;;;;;;;0.10;0.10;;;19.10;99.90;;;;;;5099691;28;21075;-71
2021/08/29 11:57:47;;;;;;;0.77;0.40;;;19.10;99.90;;;;;;5095585;28;20263;-72
2021/08/29 12:00:15;;;;;;;0.20;0.20;;;18.90;99.90;;;;;;5106771;28;20204;-71
2021/08/29 12:02:43;;;;;;;0.10;0.10;;;18.80;99.90;;;;;;5108367;28;20199;-72
2021/08/29 12:05:11;;;;;;;0.30;0.30;;;18.70;99.90;;;;;;5108146;28;20325;-72
2021/08/29 12:07:39;;;;;;;0.30;0.30;;;18.70;99.90;;;;;;5105920;28;20222;-72
2021/08/29 12:10:06;;;;;;;0.20;0.20;;;18.60;99.90;;;;;;5101298;27;20253;-72
2021/08/29 12:12:33;;;;;;;0.27;0.27;;;18.60;99.90;;;;;;5105990;28;20290;-72
2021/08/29 12:15:03;;;;;;;0.60;0.60;;;18.50;99.90;;;;;;5108149;28;20556;-72
2021/08/29 12:17:31;;;;;;;0.47;0.47;;;18.50;99.90;;;;;;5107757;28;20330;-72
2021/08/29 12:19:59;;;;;;;0.17;0.17;;;18.50;99.90;;;;;;5105158;28;20247;-72
2021/08/29 12:22:26;;;;;;;0.30;0.30;;;18.50;99.90;;;;;;5106829;27;20263;-72
2021/08/29 12:24:55;;;;;;;1.10;1.10;;;18.50;99.90;;;;;;5107653;28;20318;-72
2021/08/29 12:27:22;;;;;;;0.50;0.40;;;18.60;99.90;;;;;;5107558;28;20201;-72
2021/08/29 12:29:51;;;;;;;0.43;0.43;;;18.70;99.90;;;;;;5107107;28;20243;-72
2021/08/29 12:32:21;;;;;;;0.30;0.30;;;18.60;99.90;;;;;;5107451;28;20206;-72
2021/08/29 12:34:52;;;;;;;0.40;0.40;;;18.80;99.90;;;;;;5107731;28;20206;-72
2021/08/29 12:37:19;;;;;;;1.80;1.70;;;18.90;99.90;;;;;;5107766;28;20206;-72
2021/08/29 12:39:56;;;;;;;2.03;1.93;;;19.00;99.90;;;;;;5107458;28;20733;-72
2021/08/29 12:42:25;;;;;;;0.77;0.77;;;19.00;99.90;;;;;;5107330;28;20325;-72
2021/08/29 12:44:52;;;;;;;1.23;0.40;;;19.10;99.90;;;;;;5107674;27;20229;-72
2021/08/29 12:47:21;;;;;;;0.30;0.30;;;19.00;99.90;;;;;;5107330;27;20234;-72
2021/08/29 12:49:50;;;;;;;0.33;0.33;;;18.90;99.90;;;;;;5107500;28;20233;-72
2021/08/29 12:52:21;;;;;;;0.30;0.30;;;18.90;99.90;;;;;;5107229;28;20218;-72
2021/08/29 12:54:48;;;;;;;0.40;0.20;;;18.90;99.90;;;;;;5107426;28;20247;-72